Time;durP1;ratioP1;P1;durP2;ratioP2;P2;SDS_P1;SDS_P2;PMS_P1;PMS_P2;Temp;Humidity;BMP_temperature;BMP_pressure;BME280_temperature;BME280_humidity;BME280_pressure;Samples;Min_cycle;Max_cycle;Signal;HPM_P1;HPM_P2
2023/06/07 00:01:59;;;;;;;1.42;0.95;;;10.00;99.90;;;;;;5040332;28;20037;-69
2023/06/07 00:04:25;;;;;;;3.30;0.90;;;10.00;99.90;;;;;;5043218;28;20045;-68
2023/06/07 00:06:56;;;;;;;2.20;1.65;;;9.90;99.90;;;;;;5046815;28;20408;-69
2023/06/07 00:09:22;;;;;;;1.50;0.80;;;9.90;99.90;;;;;;5040347;28;20052;-69
2023/06/07 00:11:47;;;;;;;0.98;0.68;;;9.90;99.90;;;;;;5045029;28;20542;-68
2023/06/07 00:14:13;;;;;;;0.95;0.45;;;9.80;99.90;;;;;;5045147;28;20087;-69
2023/06/07 00:16:39;;;;;;;0.57;0.15;;;9.80;99.90;;;;;;5075573;28;20140;-69
2023/06/07 00:19:06;;;;;;;3.75;1.10;;;9.70;99.90;;;;;;5048389;28;20047;-69
2023/06/07 00:21:32;;;;;;;0.10;0.05;;;9.70;99.90;;;;;;5047348;28;20128;-69
2023/06/07 00:23:57;;;;;;;0.45;0.30;;;9.70;99.90;;;;;;5044768;28;20139;-69
2023/06/07 00:26:23;;;;;;;0.22;0.13;;;9.60;99.90;;;;;;5047186;28;20550;-69
2023/06/07 00:28:49;;;;;;;1.05;0.73;;;9.60;99.90;;;;;;5040081;28;20045;-69
2023/06/07 00:31:14;;;;;;;0.40;0.30;;;9.70;99.90;;;;;;5031716;28;20480;-69
2023/06/07 00:33:40;;;;;;;0.10;0.10;;;9.70;99.90;;;;;;5037113;28;20512;-69
2023/06/07 00:36:06;;;;;;;1.73;0.30;;;9.70;99.90;;;;;;5044134;28;20033;-70
2023/06/07 00:38:31;;;;;;;0.20;0.20;;;9.70;99.90;;;;;;5041553;28;20091;-69
2023/06/07 00:40:57;;;;;;;0.52;0.38;;;9.70;99.90;;;;;;5035633;28;20036;-69
2023/06/07 00:43:24;;;;;;;1.13;0.30;;;9.60;99.90;;;;;;5025244;28;20079;-69
2023/06/07 00:45:50;;;;;;;0.10;0.10;;;9.60;99.90;;;;;;5037102;28;20076;-69
2023/06/07 00:48:15;;;;;;;0.60;0.60;;;9.60;99.90;;;;;;5045901;28;20441;-70
2023/06/07 00:50:41;;;;;;;0.52;0.52;;;9.60;99.90;;;;;;5041742;28;20448;-69
2023/06/07 00:53:08;;;;;;;0.03;0.03;;;9.50;99.90;;;;;;5071383;28;20045;-69
2023/06/07 00:55:34;;;;;;;0.55;0.17;;;9.50;99.90;;;;;;5044301;28;20049;-69
2023/06/07 00:58:00;;;;;;;0.13;0.13;;;9.50;99.90;;;;;;5044684;28;20036;-69
2023/06/07 01:00:28;;;;;;;0.10;0.10;;;9.50;99.90;;;;;;5040753;28;20048;-68
2023/06/07 01:02:55;;;;;;;0.40;0.38;;;9.50;99.90;;;;;;5070585;28;20045;-69
2023/06/07 01:05:21;;;;;;;0.40;0.40;;;9.50;99.90;;;;;;5048982;28;20451;-69
2023/06/07 01:07:48;;;;;;;0.10;0.10;;;9.50;99.90;;;;;;5041051;28;20033;-69
2023/06/07 01:10:15;;;;;;;0.20;0.10;;;9.50;99.90;;;;;;5072236;28;20033;-69
2023/06/07 01:12:44;;;;;;;0.20;0.20;;;9.50;99.90;;;;;;5048432;28;20041;-69
2023/06/07 01:15:12;;;;;;;0.43;0.40;;;9.50;99.90;;;;;;5071802;28;20037;-68
2023/06/07 01:17:44;;;;;;;0.30;0.20;;;9.50;99.90;;;;;;5035279;28;20051;-69
2023/06/07 01:20:19;;;;;;;1.25;0.75;;;9.40;99.90;;;;;;5039012;28;20057;-69
2023/06/07 01:22:45;;;;;;;0.20;0.20;;;9.40;99.90;;;;;;5065410;28;20041;-69
2023/06/07 01:25:11;;;;;;;0.10;0.10;;;9.40;99.90;;;;;;5046131;28;20037;-68
2023/06/07 01:27:39;;;;;;;0.50;0.40;;;9.30;99.90;;;;;;5037383;28;20059;-68
2023/06/07 01:30:07;;;;;;;0.85;0.40;;;9.30;99.90;;;;;;5045269;28;20060;-68
2023/06/07 01:32:33;;;;;;;0.88;0.73;;;9.30;99.90;;;;;;5035888;28;20041;-69
2023/06/07 01:34:59;;;;;;;0.90;0.60;;;9.30;99.90;;;;;;5077689;28;20037;-68
2023/06/07 01:37:25;;;;;;;0.82;0.47;;;9.30;99.90;;;;;;5046007;28;20256;-68
2023/06/07 01:39:54;;;;;;;2.92;0.38;;;9.20;99.90;;;;;;5063223;28;20029;-68
2023/06/07 01:42:20;;;;;;;1.10;1.00;;;9.30;99.90;;;;;;5045092;28;20045;-68
2023/06/07 01:44:47;;;;;;;0.40;0.40;;;9.20;99.90;;;;;;5077932;28;20037;-68
2023/06/07 01:47:14;;;;;;;0.35;0.35;;;9.20;99.90;;;;;;5043956;28;20082;-68
2023/06/07 01:49:40;;;;;;;0.50;0.35;;;9.20;99.90;;;;;;5041841;28;20076;-67
2023/06/07 01:52:06;;;;;;;0.68;0.45;;;9.20;99.90;;;;;;5042169;28;20055;-67
2023/06/07 01:54:32;;;;;;;0.73;0.70;;;9.10;99.90;;;;;;5047631;28;20488;-67
2023/06/07 01:57:15;;;;;;;0.55;0.55;;;9.10;99.90;;;;;;5031586;28;20041;-68
2023/06/07 02:00:01;;;;;;;0.22;0.22;;;9.10;99.90;;;;;;5040021;28;20476;-68
2023/06/07 02:03:04;;;;;;;0.47;0.43;;;9.10;99.90;;;;;;5044803;28;20400;-68
2023/06/07 02:05:36;;;;;;;0.63;0.25;;;9.10;99.90;;;;;;5050207;28;20049;-67
2023/06/07 02:08:12;;;;;;;0.05;0.05;;;9.00;99.90;;;;;;5037098;28;20045;-66
2023/06/07 02:10:38;;;;;;;3.30;0.98;;;9.10;99.90;;;;;;5031912;28;20041;-66
2023/06/07 02:13:06;;;;;;;2.95;1.20;;;9.10;99.90;;;;;;5042524;28;20041;-67
2023/06/07 02:15:31;;;;;;;0.30;0.30;;;9.10;99.90;;;;;;5038171;28;20120;-67
2023/06/07 02:18:00;;;;;;;0.65;0.35;;;9.00;99.90;;;;;;5040542;28;20124;-67
2023/06/07 02:20:30;;;;;;;0.32;0.32;;;9.00;99.90;;;;;;5012062;28;20065;-68
2023/06/07 02:22:57;;;;;;;0.82;0.80;;;9.00;99.90;;;;;;5044128;28;20042;-67
2023/06/07 02:25:23;;;;;;;0.82;0.73;;;9.00;99.90;;;;;;5037002;28;20475;-68
2023/06/07 02:27:49;;;;;;;0.43;0.43;;;9.00;99.90;;;;;;5062951;28;20384;-67
2023/06/07 02:30:16;;;;;;;0.55;0.40;;;9.00;99.90;;;;;;5040578;28;20472;-67
2023/06/07 02:32:45;;;;;;;0.30;0.20;;;9.00;99.90;;;;;;5077687;28;20045;-67
2023/06/07 02:35:11;;;;;;;1.90;1.17;;;9.00;99.90;;;;;;5047964;28;20056;-67
2023/06/07 02:37:37;;;;;;;0.28;0.28;;;9.00;99.90;;;;;;5045286;28;20090;-68
2023/06/07 02:40:10;;;;;;;2.03;0.28;;;9.00;99.90;;;;;;5043188;28;20037;-68
2023/06/07 02:42:36;;;;;;;1.13;0.52;;;9.00;99.90;;;;;;5044041;28;20467;-68
2023/06/07 02:45:04;;;;;;;6.60;1.13;;;9.00;99.90;;;;;;5067363;28;20056;-67
2023/06/07 02:47:30;;;;;;;0.85;0.28;;;9.00;99.90;;;;;;5047198;28;20056;-67
2023/06/07 02:50:00;;;;;;;2.15;0.68;;;9.00;99.90;;;;;;5073733;28;20036;-67
2023/06/07 02:52:26;;;;;;;4.38;0.75;;;8.90;99.90;;;;;;5045753;28;20044;-68
2023/06/07 02:54:52;;;;;;;2.00;0.65;;;9.00;99.90;;;;;;5077326;28;20404;-67
2023/06/07 02:57:17;;;;;;;3.13;1.17;;;9.00;99.90;;;;;;5045165;28;20036;-68
2023/06/07 02:59:44;;;;;;;1.17;0.70;;;9.00;99.90;;;;;;5041907;28;20037;-69
2023/06/07 03:02:10;;;;;;;2.10;0.90;;;9.00;99.90;;;;;;5043416;28;20170;-67
2023/06/07 03:04:38;;;;;;;1.90;0.20;;;9.10;99.90;;;;;;5041058;28;20387;-67
2023/06/07 03:07:05;;;;;;;1.58;0.73;;;9.10;99.90;;;;;;5073487;28;20034;-67
2023/06/07 03:09:30;;;;;;;2.00;0.88;;;9.10;99.90;;;;;;5038326;28;20516;-67
2023/06/07 03:11:56;;;;;;;4.90;0.40;;;9.10;99.90;;;;;;5044416;28;20102;-67
2023/06/07 03:14:23;;;;;;;3.00;1.25;;;9.10;99.90;;;;;;5073663;28;20098;-67
2023/06/07 03:16:48;;;;;;;0.50;0.50;;;9.10;99.90;;;;;;5032240;28;20142;-68
2023/06/07 03:19:14;;;;;;;6.47;2.17;;;9.10;99.90;;;;;;5038708;28;20481;-67
2023/06/07 03:21:44;;;;;;;1.17;0.55;;;9.10;99.90;;;;;;5036358;28;20033;-66
2023/06/07 03:24:14;;;;;;;7.30;3.95;;;9.10;99.90;;;;;;5043777;28;20044;-68
2023/06/07 03:26:40;;;;;;;0.68;0.57;;;9.10;99.90;;;;;;5043004;28;20045;-68
2023/06/07 03:29:06;;;;;;;0.57;0.57;;;9.00;99.90;;;;;;5041843;28;20107;-68
2023/06/07 03:31:32;;;;;;;0.50;0.43;;;9.10;99.90;;;;;;5030210;28;20087;-68
2023/06/07 03:33:58;;;;;;;1.38;0.32;;;9.00;99.90;;;;;;5039558;28;20065;-66
2023/06/07 03:36:28;;;;;;;2.80;1.00;;;9.10;99.90;;;;;;5037526;28;20555;-66
2023/06/07 03:38:55;;;;;;;0.65;0.60;;;9.10;99.90;;;;;;5039786;28;20049;-67
2023/06/07 03:41:21;;;;;;;2.38;0.52;;;9.10;99.90;;;;;;5029453;28;20052;-68
2023/06/07 03:43:47;;;;;;;1.73;0.40;;;9.10;99.90;;;;;;5041018;28;20037;-68
2023/06/07 03:46:12;;;;;;;0.20;0.20;;;9.10;99.90;;;;;;5034768;28;20048;-68
2023/06/07 03:48:38;;;;;;;1.00;0.65;;;9.20;99.90;;;;;;5036723;28;20396;-68
2023/06/07 03:51:05;;;;;;;0.55;0.52;;;9.20;99.90;;;;;;5040075;28;20365;-67
2023/06/07 03:53:31;;;;;;;0.20;0.20;;;9.20;99.90;;;;;;5040892;28;20501;-68
2023/06/07 03:55:57;;;;;;;0.30;0.30;;;9.30;99.90;;;;;;5040639;28;20135;-67
2023/06/07 03:58:24;;;;;;;0.70;0.32;;;9.30;99.90;;;;;;5039158;28;20120;-67
2023/06/07 04:00:54;;;;;;;3.13;0.90;;;9.40;99.90;;;;;;5037917;28;20527;-67
2023/06/07 04:03:27;;;;;;;0.90;0.35;;;9.40;99.90;;;;;;5039676;28;20041;-67
2023/06/07 04:05:57;;;;;;;2.47;1.38;;;9.40;99.90;;;;;;5038573;28;20091;-67
2023/06/07 04:08:22;;;;;;;4.63;3.05;;;9.50;99.90;;;;;;5070305;28;20045;-67
2023/06/07 04:10:49;;;;;;;2.05;1.85;;;9.50;99.90;;;;;;5041243;28;20484;-68
2023/06/07 04:13:14;;;;;;;11.77;1.67;;;9.60;99.90;;;;;;5037614;28;20108;-66
2023/06/07 04:15:40;;;;;;;0.47;0.40;;;9.60;99.90;;;;;;5042460;28;20041;-67
2023/06/07 04:18:06;;;;;;;0.73;0.55;;;9.60;99.90;;;;;;5038735;28;20092;-68
2023/06/07 04:20:32;;;;;;;0.38;0.38;;;9.70;99.90;;;;;;5072824;28;20408;-66
2023/06/07 04:22:57;;;;;;;0.85;0.85;;;9.70;99.90;;;;;;5039248;28;20052;-68
2023/06/07 04:25:33;;;;;;;0.80;0.80;;;9.70;99.90;;;;;;5058102;28;20041;-67
2023/06/07 04:28:00;;;;;;;0.75;0.57;;;9.70;99.90;;;;;;5032150;28;20034;-67
2023/06/07 04:30:36;;;;;;;0.65;0.45;;;9.80;99.90;;;;;;5027836;28;20038;-68
2023/06/07 04:33:10;;;;;;;0.30;0.30;;;9.90;99.90;;;;;;5033982;28;20049;-67
2023/06/07 04:35:41;;;;;;;0.88;0.88;;;9.90;99.90;;;;;;5047766;28;20048;-68
2023/06/07 04:38:20;;;;;;;0.70;0.63;;;10.00;99.90;;;;;;5077323;28;20045;-68
2023/06/07 04:40:49;;;;;;;0.68;0.57;;;10.00;99.90;;;;;;5046106;28;20036;-67
2023/06/07 04:43:18;;;;;;;0.75;0.45;;;10.10;99.90;;;;;;5049607;28;20095;-67
2023/06/07 04:45:54;;;;;;;1.38;0.45;;;10.20;99.90;;;;;;5041992;28;20434;-68
2023/06/07 04:48:25;;;;;;;1.60;0.60;;;10.20;99.90;;;;;;5042996;28;22002;-68
2023/06/07 04:50:53;;;;;;;0.45;0.45;;;10.30;99.90;;;;;;5043714;28;20380;-68
2023/06/07 04:53:21;;;;;;;0.32;0.32;;;10.40;99.90;;;;;;5038175;28;20045;-68
2023/06/07 04:55:47;;;;;;;0.10;0.10;;;10.50;99.90;;;;;;5046479;28;20080;-68
2023/06/07 04:58:16;;;;;;;1.67;0.40;;;10.60;99.90;;;;;;5038423;28;20037;-67
2023/06/07 05:00:42;;;;;;;0.17;0.17;;;10.70;99.90;;;;;;5072135;28;20037;-68
2023/06/07 05:03:13;;;;;;;0.00;0.00;;;10.80;99.90;;;;;;5045472;28;20081;-68
2023/06/07 05:05:40;;;;;;;0.63;0.63;;;10.90;99.90;;;;;;5045568;28;20044;-67
2023/06/07 05:08:06;;;;;;;2.75;0.25;;;11.00;99.90;;;;;;5039192;28;20047;-68
2023/06/07 05:10:32;;;;;;;0.50;0.30;;;11.10;99.90;;;;;;5048261;28;20034;-68
2023/06/07 05:12:57;;;;;;;0.20;0.20;;;11.20;99.90;;;;;;5048706;28;20033;-68
2023/06/07 05:15:23;;;;;;;0.30;0.30;;;11.30;99.90;;;;;;5045486;28;20045;-68
2023/06/07 05:17:50;;;;;;;0.75;0.75;;;11.40;99.90;;;;;;5070309;28;20037;-68
2023/06/07 05:20:17;;;;;;;3.83;0.50;;;11.50;99.90;;;;;;5073839;28;21375;-68
2023/06/07 05:22:43;;;;;;;1.70;0.60;;;11.60;99.90;;;;;;5043591;28;20414;-68
2023/06/07 05:25:11;;;;;;;1.48;1.20;;;11.70;99.90;;;;;;5042536;28;20040;-68
2023/06/07 05:27:38;;;;;;;2.58;2.38;;;11.70;99.90;;;;;;5076897;28;20045;-68
2023/06/07 05:30:06;;;;;;;1.00;0.90;;;11.80;99.90;;;;;;5042761;28;20032;-68
2023/06/07 05:32:32;;;;;;;0.20;0.20;;;11.90;99.90;;;;;;5038686;28;20394;-68
2023/06/07 05:34:59;;;;;;;0.30;0.30;;;11.90;99.90;;;;;;5043620;28;20044;-69
2023/06/07 05:37:25;;;;;;;0.28;0.28;;;12.00;99.90;;;;;;5044289;28;20063;-69
2023/06/07 05:39:52;;;;;;;0.98;0.20;;;12.00;99.90;;;;;;5075832;28;20036;-69
2023/06/07 05:42:17;;;;;;;0.63;0.50;;;12.10;99.90;;;;;;5071525;28;20484;-68
2023/06/07 05:44:48;;;;;;;0.30;0.30;;;12.10;99.90;;;;;;5041559;28;20095;-67
2023/06/07 05:47:14;;;;;;;0.60;0.50;;;12.10;99.90;;;;;;5037481;28;20037;-67
2023/06/07 05:49:41;;;;;;;0.25;0.17;;;12.20;99.90;;;;;;5071782;28;20045;-68
2023/06/07 05:52:07;;;;;;;2.30;0.95;;;12.20;99.90;;;;;;5042236;28;20037;-67
2023/06/07 05:54:33;;;;;;;0.75;0.38;;;12.30;99.90;;;;;;5042848;28;20041;-66
2023/06/07 05:56:58;;;;;;;0.28;0.28;;;12.40;99.90;;;;;;5074663;28;20094;-65
2023/06/07 05:59:24;;;;;;;1.30;0.50;;;12.40;99.90;;;;;;5035685;28;20036;-66
2023/06/07 06:01:49;;;;;;;0.25;0.25;;;12.40;99.90;;;;;;5080326;28;20045;-67
2023/06/07 06:04:16;;;;;;;0.32;0.30;;;12.40;99.90;;;;;;5046325;28;20075;-66
2023/06/07 06:06:42;;;;;;;0.22;0.22;;;12.50;99.90;;;;;;5044789;28;20133;-66
2023/06/07 06:09:09;;;;;;;0.45;0.28;;;12.60;99.90;;;;;;5044707;28;20037;-65
2023/06/07 06:11:35;;;;;;;1.48;0.98;;;12.60;99.90;;;;;;5047392;28;20045;-66
2023/06/07 06:14:01;;;;;;;0.10;0.10;;;12.60;99.90;;;;;;5043916;28;20041;-66
2023/06/07 06:16:26;;;;;;;0.28;0.10;;;12.70;99.90;;;;;;5046587;28;20071;-66
2023/06/07 06:18:52;;;;;;;0.20;0.20;;;12.70;99.90;;;;;;5077083;28;20497;-66
2023/06/07 06:21:18;;;;;;;0.38;0.38;;;12.70;99.90;;;;;;5043281;28;20064;-65
2023/06/07 06:23:43;;;;;;;0.70;0.35;;;12.70;99.90;;;;;;5035931;28;20115;-66
2023/06/07 06:26:09;;;;;;;2.08;0.28;;;12.80;99.90;;;;;;5029085;28;20455;-66
2023/06/07 06:28:34;;;;;;;0.05;0.05;;;12.80;99.90;;;;;;5035745;28;20036;-66
2023/06/07 06:31:01;;;;;;;0.20;0.20;;;12.90;99.90;;;;;;5047196;28;20041;-66
2023/06/07 06:33:27;;;;;;;0.60;0.52;;;12.90;99.90;;;;;;5041960;28;20076;-68
2023/06/07 06:35:53;;;;;;;0.30;0.30;;;13.10;99.90;;;;;;5040275;28;20041;-69
2023/06/07 06:38:19;;;;;;;0.73;0.43;;;13.10;99.90;;;;;;5031077;28;20048;-68
2023/06/07 06:40:45;;;;;;;0.90;0.43;;;13.20;99.90;;;;;;5074529;28;20045;-68
2023/06/07 06:43:11;;;;;;;0.10;0.10;;;13.30;99.90;;;;;;5043913;28;20110;-67
2023/06/07 06:45:36;;;;;;;0.10;0.10;;;13.40;99.90;;;;;;5041466;28;20044;-67
2023/06/07 06:48:02;;;;;;;0.20;0.20;;;13.60;99.90;;;;;;5031588;28;20040;-67
2023/06/07 06:50:29;;;;;;;0.93;0.45;;;13.80;99.90;;;;;;5039969;28;20082;-67
2023/06/07 06:52:55;;;;;;;0.20;0.20;;;14.10;99.90;;;;;;5057374;28;20037;-67
2023/06/07 06:55:20;;;;;;;0.43;0.40;;;14.50;99.90;;;;;;5039263;28;20540;-67
2023/06/07 06:57:46;;;;;;;0.82;0.65;;;14.70;99.90;;;;;;5039895;28;20704;-66
2023/06/07 07:00:12;;;;;;;2.22;0.73;;;14.80;99.90;;;;;;5037959;28;20069;-67
2023/06/07 07:02:38;;;;;;;1.67;0.98;;;14.70;99.90;;;;;;5073499;28;20045;-68
2023/06/07 07:05:05;;;;;;;0.30;0.30;;;14.60;99.90;;;;;;5034288;28;20078;-68
2023/06/07 07:07:32;;;;;;;1.02;0.32;;;14.70;99.90;;;;;;5039075;28;20128;-67
2023/06/07 07:09:58;;;;;;;0.52;0.52;;;14.80;99.90;;;;;;5040665;28;20449;-66
2023/06/07 07:12:24;;;;;;;0.93;0.50;;;15.00;99.90;;;;;;5070299;28;20072;-68
2023/06/07 07:14:50;;;;;;;1.25;0.93;;;15.00;99.90;;;;;;5043519;28;20075;-67
2023/06/07 07:17:17;;;;;;;2.53;0.43;;;14.90;99.90;;;;;;5039007;28;20072;-67
2023/06/07 07:19:42;;;;;;;0.00;0.00;;;14.90;99.90;;;;;;5070884;28;20056;-68
2023/06/07 07:22:08;;;;;;;0.20;0.20;;;14.90;99.90;;;;;;5071436;28;20044;-66
2023/06/07 07:24:33;;;;;;;0.52;0.28;;;14.90;99.90;;;;;;5037964;28;20077;-66
2023/06/07 07:26:59;;;;;;;0.40;0.30;;;14.90;99.90;;;;;;5074279;28;20063;-67
2023/06/07 07:29:25;;;;;;;0.55;0.55;;;14.90;99.90;;;;;;5039243;28;20044;-69
2023/06/07 07:31:51;;;;;;;8.50;0.45;;;14.80;99.90;;;;;;5072890;28;21058;-69
2023/06/07 07:34:17;;;;;;;0.40;0.30;;;14.90;99.90;;;;;;5035108;28;20822;-68
2023/06/07 07:36:43;;;;;;;1.85;1.70;;;15.10;99.90;;;;;;5040113;28;20063;-66
2023/06/07 07:39:11;;;;;;;0.95;0.95;;;15.20;99.90;;;;;;5043291;28;20128;-65
2023/06/07 07:41:37;;;;;;;0.75;0.52;;;15.10;99.90;;;;;;5045661;28;20304;-65
2023/06/07 07:44:03;;;;;;;1.45;0.50;;;15.20;99.90;;;;;;5040983;28;20128;-68
2023/06/07 07:46:29;;;;;;;6.50;1.95;;;15.20;99.90;;;;;;5045878;28;20051;-66
2023/06/07 07:48:55;;;;;;;0.28;0.20;;;15.20;99.90;;;;;;5041564;28;20040;-67
2023/06/07 07:51:21;;;;;;;0.32;0.32;;;15.30;99.90;;;;;;5044326;28;20049;-67
2023/06/07 07:53:47;;;;;;;0.55;0.55;;;15.30;99.90;;;;;;5041608;28;20033;-67
2023/06/07 07:56:12;;;;;;;0.43;0.43;;;15.40;99.90;;;;;;5043913;28;20118;-68
2023/06/07 07:58:38;;;;;;;0.50;0.50;;;15.40;99.90;;;;;;5040925;28;20485;-67
2023/06/07 08:01:04;;;;;;;0.65;0.60;;;15.50;99.90;;;;;;5046406;28;20099;-67
2023/06/07 08:03:30;;;;;;;0.80;0.80;;;15.60;99.90;;;;;;5033699;28;20120;-65
2023/06/07 08:05:56;;;;;;;1.77;0.10;;;15.70;99.90;;;;;;5045450;28;20143;-68
2023/06/07 08:08:21;;;;;;;0.10;0.10;;;15.90;99.90;;;;;;5043305;28;20045;-67
2023/06/07 08:10:48;;;;;;;3.25;1.20;;;16.10;99.90;;;;;;5045715;28;20411;-67
2023/06/07 08:13:14;;;;;;;0.75;0.30;;;16.20;99.90;;;;;;5040311;28;20033;-67
2023/06/07 08:15:40;;;;;;;3.50;0.22;;;16.20;99.90;;;;;;5045438;28;20040;-67
2023/06/07 08:18:06;;;;;;;0.50;0.28;;;16.20;99.90;;;;;;5041666;28;20476;-67
2023/06/07 08:20:32;;;;;;;0.30;0.30;;;16.20;99.90;;;;;;5045854;28;20124;-66
2023/06/07 08:22:57;;;;;;;1.55;0.85;;;16.30;99.90;;;;;;5044582;28;20049;-68
2023/06/07 08:25:23;;;;;;;0.80;0.50;;;16.50;99.90;;;;;;5051286;28;20442;-67
2023/06/07 08:27:48;;;;;;;1.23;1.13;;;16.40;99.90;;;;;;5044391;28;21462;-67
2023/06/07 08:30:14;;;;;;;0.28;0.20;;;16.40;99.90;;;;;;5045009;28;20036;-67
2023/06/07 08:32:41;;;;;;;1.05;0.82;;;16.60;99.90;;;;;;5074879;28;20091;-69
2023/06/07 08:35:07;;;;;;;0.32;0.32;;;16.70;99.90;;;;;;5042901;28;20387;-69
2023/06/07 08:37:33;;;;;;;0.30;0.30;;;16.90;99.90;;;;;;5044403;28;20048;-66
2023/06/07 08:39:59;;;;;;;1.17;0.35;;;17.10;99.90;;;;;;5072702;28;20033;-67
2023/06/07 08:42:25;;;;;;;0.38;0.38;;;17.20;99.90;;;;;;5047196;28;20124;-67
2023/06/07 08:44:51;;;;;;;0.50;0.50;;;17.30;99.90;;;;;;5076994;28;20037;-69
2023/06/07 08:47:18;;;;;;;0.10;0.10;;;17.40;99.90;;;;;;5042720;28;20044;-67
2023/06/07 08:49:44;;;;;;;0.70;0.68;;;17.70;99.90;;;;;;5045873;28;20048;-68
2023/06/07 08:52:10;;;;;;;0.30;0.30;;;17.90;99.90;;;;;;5047078;28;20531;-68
2023/06/07 08:54:43;;;;;;;1.95;0.60;;;18.10;99.90;;;;;;5082664;28;20102;-68
2023/06/07 08:57:10;;;;;;;0.28;0.28;;;18.20;99.90;;;;;;5043039;28;20037;-66
2023/06/07 08:59:37;;;;;;;0.55;0.55;;;18.20;99.90;;;;;;5041006;28;20044;-67
2023/06/07 09:02:03;;;;;;;0.50;0.28;;;18.20;99.90;;;;;;5076165;28;20068;-67
2023/06/07 09:04:30;;;;;;;0.75;0.68;;;18.30;99.90;;;;;;5079228;28;20087;-65
2023/06/07 09:06:55;;;;;;;2.65;0.57;;;18.30;99.90;;;;;;5063208;28;20430;-68
2023/06/07 09:09:21;;;;;;;0.30;0.30;;;18.20;99.90;;;;;;5035078;28;20037;-68
2023/06/07 09:11:51;;;;;;;2.42;0.20;;;18.30;99.90;;;;;;5052342;28;20041;-67
2023/06/07 09:14:17;;;;;;;0.28;0.28;;;18.40;99.90;;;;;;5042299;28;20064;-68
2023/06/07 09:16:56;;;;;;;0.50;0.50;;;18.40;99.90;;;;;;5047698;28;20095;-68
2023/06/07 09:19:42;;;;;;;0.30;0.30;;;18.50;99.90;;;;;;5042361;28;20041;-68
2023/06/07 09:22:09;;;;;;;0.20;0.20;;;18.50;99.90;;;;;;5046210;28;20047;-69
2023/06/07 09:24:36;;;;;;;0.70;0.45;;;18.60;99.90;;;;;;5074588;28;20475;-68
2023/06/07 09:27:03;;;;;;;0.40;0.40;;;18.70;99.90;;;;;;5054132;28;20212;-67
2023/06/07 09:29:37;;;;;;;3.90;0.32;;;18.90;99.90;;;;;;5043770;28;20041;-67
2023/06/07 09:32:25;;;;;;;0.10;0.10;;;19.00;99.90;;;;;;5040615;28;20056;-66
2023/06/07 09:34:53;;;;;;;0.20;0.20;;;19.10;99.90;;;;;;5043668;28;20040;-67
2023/06/07 09:37:21;;;;;;;0.28;0.28;;;19.20;99.90;;;;;;5039481;28;20056;-67
2023/06/07 09:39:51;;;;;;;0.75;0.38;;;19.30;99.90;;;;;;5042077;28;20421;-67
2023/06/07 09:42:17;;;;;;;0.13;0.13;;;19.40;99.90;;;;;;5033216;28;20120;-67
2023/06/07 09:44:43;;;;;;;0.85;0.30;;;19.40;99.90;;;;;;5045233;28;20106;-67
2023/06/07 09:47:22;;;;;;;1.45;0.75;;;19.30;99.90;;;;;;5039368;28;20033;-67
2023/06/07 09:49:48;;;;;;;0.60;0.55;;;19.20;99.90;;;;;;5045836;28;20033;-67
2023/06/07 09:52:15;;;;;;;0.43;0.20;;;19.10;99.90;;;;;;5033266;28;20041;-66
2023/06/07 09:54:44;;;;;;;0.30;0.30;;;19.10;99.90;;;;;;5045180;28;20049;-68
2023/06/07 09:57:23;;;;;;;2.38;1.02;;;19.20;99.90;;;;;;5039598;28;20589;-67
2023/06/07 09:59:58;;;;;;;0.47;0.47;;;19.30;99.90;;;;;;5042404;28;20400;-68
2023/06/07 10:02:24;;;;;;;1.33;0.60;;;19.10;99.90;;;;;;5038931;28;20073;-68
2023/06/07 10:04:50;;;;;;;4.63;1.50;;;19.10;99.90;;;;;;5044557;28;20036;-67
2023/06/07 10:07:18;;;;;;;0.68;0.60;;;19.20;99.90;;;;;;5072974;28;20373;-68
2023/06/07 10:09:45;;;;;;;0.70;0.55;;;19.10;99.90;;;;;;5039814;28;20041;-67
2023/06/07 10:12:13;;;;;;;0.98;0.88;;;19.30;99.90;;;;;;5068597;28;20115;-67
2023/06/07 10:14:42;;;;;;;0.70;0.57;;;19.40;99.90;;;;;;5069685;28;20046;-68
2023/06/07 10:17:10;;;;;;;5.07;0.95;;;19.40;99.90;;;;;;5043152;28;20033;-66
2023/06/07 10:19:40;;;;;;;1.92;0.88;;;19.40;99.90;;;;;;5024633;28;20049;-68
2023/06/07 10:22:14;;;;;;;1.63;1.27;;;19.50;99.90;;;;;;5039591;28;20041;-68
2023/06/07 10:25:00;;;;;;;0.32;0.20;;;19.60;99.90;;;;;;5039221;28;20053;-69
2023/06/07 10:27:31;;;;;;;0.73;0.30;;;19.70;99.90;;;;;;5042725;28;20072;-67
2023/06/07 10:30:09;;;;;;;0.30;0.30;;;19.90;99.90;;;;;;5040955;28;20045;-67
2023/06/07 10:32:38;;;;;;;0.40;0.32;;;20.00;99.90;;;;;;5038468;28;20069;-69
2023/06/07 10:35:09;;;;;;;0.20;0.20;;;20.00;99.90;;;;;;5046223;28;20037;-68
2023/06/07 10:37:36;;;;;;;0.17;0.17;;;20.10;99.90;;;;;;5035064;28;20042;-67
2023/06/07 10:40:09;;;;;;;0.40;0.40;;;20.20;99.90;;;;;;5068318;28;20185;-67
2023/06/07 10:42:35;;;;;;;2.47;0.95;;;20.20;99.90;;;;;;5037789;28;20041;-67
2023/06/07 10:45:01;;;;;;;0.43;0.40;;;20.30;99.90;;;;;;5040953;28;20068;-68
2023/06/07 10:47:27;;;;;;;0.63;0.63;;;20.40;99.90;;;;;;5070271;28;20065;-68
2023/06/07 10:49:53;;;;;;;0.25;0.22;;;20.50;99.90;;;;;;5039096;28;20041;-68
2023/06/07 10:52:20;;;;;;;3.60;1.10;;;20.40;99.90;;;;;;5070345;28;20465;-65
2023/06/07 10:54:45;;;;;;;1.38;0.50;;;20.40;99.90;;;;;;5047573;28;20503;-68
2023/06/07 10:57:12;;;;;;;2.88;0.50;;;20.20;99.90;;;;;;5035703;28;20044;-67
2023/06/07 10:59:39;;;;;;;1.75;0.75;;;20.10;99.90;;;;;;5065179;28;20644;-69
2023/06/07 11:02:24;;;;;;;1.67;0.88;;;20.00;99.90;;;;;;5043707;28;20044;-68
2023/06/07 11:05:03;;;;;;;0.55;0.55;;;20.00;99.90;;;;;;5048211;28;20041;-67
2023/06/07 11:07:35;;;;;;;0.75;0.40;;;20.30;99.90;;;;;;5045357;28;20037;-67
2023/06/07 11:10:07;;;;;;;;;;;20.30;99.90;;;;;;5078543;28;20037;-68
2023/06/07 11:12:35;;;;;;;0.68;0.15;;;20.40;99.90;;;;;;5080088;28;19990;-68
2023/06/07 11:15:20;;;;;;;0.50;0.50;;;20.40;99.90;;;;;;5081330;28;20072;-68
2023/06/07 11:17:53;;;;;;;0.85;0.85;;;20.60;99.90;;;;;;5037015;28;20045;-67
2023/06/07 11:20:37;;;;;;;0.95;0.95;;;20.80;99.90;;;;;;5047244;28;20122;-65
2023/06/07 11:23:19;;;;;;;1.23;1.13;;;20.80;99.90;;;;;;5041352;28;20120;-67
2023/06/07 11:25:45;;;;;;;1.00;0.63;;;20.70;99.90;;;;;;5046880;28;20053;-68
2023/06/07 11:28:12;;;;;;;0.70;0.55;;;20.90;99.90;;;;;;5038480;28;20034;-70
2023/06/07 11:30:38;;;;;;;3.28;1.30;;;20.90;99.90;;;;;;5078663;28;20037;-67
2023/06/07 11:33:04;;;;;;;0.30;0.30;;;20.90;99.90;;;;;;5044616;28;20041;-68
2023/06/07 11:35:32;;;;;;;0.57;0.57;;;20.90;99.90;;;;;;5047764;28;20063;-69
2023/06/07 11:38:04;;;;;;;0.40;0.40;;;20.90;99.90;;;;;;5047318;28;20087;-67
2023/06/07 11:40:30;;;;;;;0.65;0.43;;;21.10;99.90;;;;;;5080367;28;20053;-69
2023/06/07 11:42:55;;;;;;;0.38;0.38;;;21.00;99.90;;;;;;5068397;28;20044;-68
2023/06/07 11:45:21;;;;;;;0.77;0.75;;;21.10;99.90;;;;;;5043572;28;20384;-68
2023/06/07 11:47:50;;;;;;;0.20;0.20;;;21.20;99.90;;;;;;5038872;28;20111;-67
2023/06/07 11:50:16;;;;;;;0.55;0.55;;;21.30;99.90;;;;;;5033746;28;20041;-67
2023/06/07 11:52:42;;;;;;;0.75;0.50;;;21.40;99.90;;;;;;5039172;28;20037;-69
2023/06/07 11:55:08;;;;;;;0.93;0.65;;;21.50;99.90;;;;;;5045930;28;20707;-67
2023/06/07 11:57:38;;;;;;;0.77;0.28;;;21.60;99.90;;;;;;5074763;28;20460;-67
2023/06/07 12:00:11;;;;;;;0.75;0.65;;;21.60;99.90;;;;;;5043200;28;20040;-67
2023/06/07 12:02:40;;;;;;;0.57;0.38;;;21.70;99.90;;;;;;5043840;28;20140;-66
2023/06/07 12:05:09;;;;;;;0.52;0.52;;;21.70;99.90;;;;;;5041388;28;20597;-67
2023/06/07 12:07:35;;;;;;;2.28;1.48;;;21.80;99.90;;;;;;5075308;28;20036;-67
2023/06/07 12:10:01;;;;;;;0.55;0.55;;;21.80;99.90;;;;;;5079699;28;20040;-66
2023/06/07 12:12:27;;;;;;;0.40;0.40;;;21.90;99.90;;;;;;5040351;28;20151;-67
2023/06/07 12:15:02;;;;;;;0.47;0.43;;;21.90;99.90;;;;;;5045814;28;20132;-67
2023/06/07 12:17:34;;;;;;;0.65;0.65;;;21.90;99.90;;;;;;5069185;28;21152;-67
2023/06/07 12:20:14;;;;;;;1.00;0.90;;;21.90;99.90;;;;;;5035062;28;20248;-65
2023/06/07 12:22:40;;;;;;;1.77;1.15;;;21.80;99.90;;;;;;5038654;28;20055;-67
2023/06/07 12:25:16;;;;;;;1.48;0.55;;;22.00;99.90;;;;;;5037420;28;20041;-68
2023/06/07 12:27:48;;;;;;;3.10;2.05;;;22.00;99.90;;;;;;5035251;28;20048;-68
2023/06/07 12:30:14;;;;;;;0.40;0.40;;;22.00;99.90;;;;;;5071139;28;20095;-67
2023/06/07 12:32:40;;;;;;;1.98;1.08;;;22.00;99.90;;;;;;5075374;28;20037;-69
2023/06/07 12:35:10;;;;;;;0.40;0.28;;;22.10;99.90;;;;;;5044146;28;20566;-67
2023/06/07 12:37:36;;;;;;;1.75;1.13;;;22.10;99.90;;;;;;5068298;28;20069;-66
2023/06/07 12:40:04;;;;;;;0.22;0.22;;;22.10;99.90;;;;;;5063675;28;20179;-67
2023/06/07 12:42:30;;;;;;;3.03;1.52;;;22.00;99.90;;;;;;5074374;28;20148;-66
2023/06/07 12:44:55;;;;;;;1.38;1.27;;;21.90;99.90;;;;;;5045056;28;20051;-68
2023/06/07 12:47:22;;;;;;;0.32;0.32;;;21.90;99.90;;;;;;5072173;28;20491;-67
2023/06/07 12:49:48;;;;;;;0.65;0.60;;;21.90;99.90;;;;;;5054866;28;20048;-68
2023/06/07 12:52:13;;;;;;;0.90;0.75;;;21.90;99.90;;;;;;5054044;28;20041;-68
2023/06/07 12:54:39;;;;;;;1.27;0.43;;;21.90;99.90;;;;;;5073975;28;20033;-66